Time;durP1;ratioP1;P1;durP2;ratioP2;P2;SDS_P1;SDS_P2;PMS_P1;PMS_P2;Temp;Humidity;BMP_temperature;BMP_pressure;BME280_temperature;BME280_humidity;BME280_pressure;Samples;Min_cycle;Max_cycle;Signal;HPM_P1;HPM_P2
2024/03/03 00:01:25;;;;;;;27.03;24.33;;;8.30;99.90;;;;;;5176298;27;20440;-76
2024/03/03 00:03:53;;;;;;;28.20;25.57;;;8.30;99.90;;;;;;5176216;27;20425;-76
2024/03/03 00:06:22;;;;;;;27.90;25.20;;;8.30;99.90;;;;;;5157575;27;20433;-76
2024/03/03 00:08:50;;;;;;;28.90;26.00;;;8.30;99.90;;;;;;5157321;27;21108;-76
2024/03/03 00:11:20;;;;;;;29.20;26.40;;;8.30;99.90;;;;;;5157600;27;20460;-76
2024/03/03 00:13:49;;;;;;;28.73;26.03;;;8.30;99.90;;;;;;5157892;27;20501;-76
2024/03/03 00:16:17;;;;;;;27.80;25.30;;;8.20;99.90;;;;;;5157397;27;20444;-76
2024/03/03 00:18:46;;;;;;;27.77;25.03;;;8.20;99.90;;;;;;5157335;27;20465;-76
2024/03/03 00:21:15;;;;;;;28.90;26.10;;;8.20;99.90;;;;;;5156693;27;20437;-75
2024/03/03 00:23:43;;;;;;;28.23;25.63;;;8.20;99.90;;;;;;5176192;27;20444;-76
2024/03/03 00:26:12;;;;;;;27.83;25.00;;;8.20;99.90;;;;;;5175889;27;20464;-76
2024/03/03 00:28:42;;;;;;;25.60;23.20;;;8.20;99.90;;;;;;5175832;27;20472;-76
2024/03/03 00:31:11;;;;;;;27.47;24.97;;;8.20;99.90;;;;;;5157352;27;20497;-76
2024/03/03 00:33:39;;;;;;;27.80;25.10;;;8.10;99.90;;;;;;5157032;27;20480;-76
2024/03/03 00:36:08;;;;;;;28.50;25.70;;;8.10;99.90;;;;;;5157192;27;20432;-76
2024/03/03 00:38:37;;;;;;;27.37;24.67;;;8.10;99.90;;;;;;5157125;27;20469;-76
2024/03/03 00:41:06;;;;;;;29.87;27.17;;;8.10;99.90;;;;;;5157059;27;20444;-76
2024/03/03 00:43:35;;;;;;;28.33;25.53;;;8.10;99.90;;;;;;5157022;27;20452;-76
2024/03/03 00:46:06;;;;;;;28.83;26.13;;;8.10;99.90;;;;;;5157643;27;20433;-76
2024/03/03 00:48:34;;;;;;;26.73;24.20;;;8.10;99.90;;;;;;5156911;27;20497;-76
2024/03/03 00:51:03;;;;;;;29.20;26.13;;;8.10;99.90;;;;;;5175709;27;20919;-76
2024/03/03 00:53:32;;;;;;;28.87;26.07;;;8.10;99.90;;;;;;5156842;27;20933;-76
2024/03/03 00:56:00;;;;;;;27.57;24.93;;;8.00;99.90;;;;;;5156939;27;20449;-75
2024/03/03 00:58:29;;;;;;;28.97;26.00;;;8.00;99.90;;;;;;5175621;27;20456;-75
2024/03/03 01:00:58;;;;;;;28.90;26.10;;;8.00;99.90;;;;;;5175962;27;20432;-75
2024/03/03 01:03:29;;;;;;;29.60;26.67;;;8.00;99.90;;;;;;5156908;27;20452;-74
2024/03/03 01:05:58;;;;;;;28.27;25.80;;;8.00;99.90;;;;;;5156879;27;20804;-77
2024/03/03 01:08:26;;;;;;;28.93;26.20;;;7.90;99.90;;;;;;5156741;27;20939;-75
2024/03/03 01:10:54;;;;;;;28.70;26.00;;;7.90;99.90;;;;;;5156753;27;20451;-75
2024/03/03 01:13:23;;;;;;;26.77;24.20;;;7.90;99.90;;;;;;5156770;27;20937;-75
2024/03/03 01:15:51;;;;;;;28.30;25.57;;;7.90;99.90;;;;;;5156763;27;20512;-77
2024/03/03 01:18:21;;;;;;;28.93;26.00;;;7.90;99.90;;;;;;5156669;27;20467;-75
2024/03/03 01:20:51;;;;;;;29.47;26.30;;;7.90;99.90;;;;;;5175354;27;20436;-75
2024/03/03 01:23:19;;;;;;;28.47;25.77;;;7.90;99.90;;;;;;5156659;27;20445;-74
2024/03/03 01:25:49;;;;;;;30.07;27.20;;;7.80;99.90;;;;;;5175459;27;20425;-75
2024/03/03 01:28:17;;;;;;;29.53;26.53;;;7.80;99.90;;;;;;5175877;27;20515;-77
2024/03/03 01:30:46;;;;;;;28.77;26.17;;;7.80;99.90;;;;;;5156751;27;20941;-75
2024/03/03 01:33:15;;;;;;;30.40;27.30;;;7.80;99.90;;;;;;5159566;27;20963;-76
2024/03/03 01:35:44;;;;;;;29.33;26.53;;;7.80;99.90;;;;;;5160409;27;20976;-75
2024/03/03 01:38:13;;;;;;;29.33;26.40;;;7.80;99.90;;;;;;5160442;27;21041;-75
2024/03/03 01:40:42;;;;;;;29.53;26.73;;;7.80;99.90;;;;;;5179210;27;20436;-76
2024/03/03 01:43:11;;;;;;;30.53;27.67;;;7.80;99.90;;;;;;5160425;27;20440;-74
2024/03/03 01:45:39;;;;;;;28.53;25.73;;;7.80;99.90;;;;;;5160479;27;20482;-76
2024/03/03 01:48:09;;;;;;;27.87;25.07;;;7.80;99.90;;;;;;5160168;27;20601;-74
2024/03/03 01:50:38;;;;;;;29.13;26.33;;;7.80;99.90;;;;;;5160209;27;20449;-76
2024/03/03 01:53:08;;;;;;;29.17;26.20;;;7.70;99.90;;;;;;5160168;27;20444;-76
2024/03/03 01:55:38;;;;;;;29.83;26.87;;;7.70;99.90;;;;;;5159978;27;20513;-76
2024/03/03 01:58:07;;;;;;;32.07;28.93;;;7.70;99.90;;;;;;5160083;27;20479;-76
2024/03/03 02:00:36;;;;;;;29.27;26.40;;;7.70;99.90;;;;;;5159959;27;20824;-76
2024/03/03 02:03:09;;;;;;;27.90;25.07;;;7.70;99.90;;;;;;5160075;27;20452;-75
2024/03/03 02:05:39;;;;;;;30.27;27.20;;;7.70;99.90;;;;;;5160008;27;20448;-76
2024/03/03 02:08:07;;;;;;;29.83;27.13;;;7.60;99.90;;;;;;5159816;27;20472;-76
2024/03/03 02:10:39;;;;;;;29.70;26.70;;;7.60;99.90;;;;;;5178417;27;20464;-76
2024/03/03 02:13:07;;;;;;;32.77;29.57;;;7.60;99.90;;;;;;5160023;27;20425;-76
2024/03/03 02:15:37;;;;;;;31.00;27.20;;;7.60;99.90;;;;;;5159974;27;20464;-76
2024/03/03 02:18:06;;;;;;;31.30;28.20;;;7.60;99.90;;;;;;5159626;27;20464;-76
2024/03/03 02:20:36;;;;;;;31.63;28.27;;;7.60;99.90;;;;;;5159564;27;20468;-75
2024/03/03 02:23:06;;;;;;;31.70;28.50;;;7.60;99.90;;;;;;5159585;27;20812;-75
2024/03/03 02:25:34;;;;;;;31.37;28.27;;;7.60;99.90;;;;;;5159449;27;20453;-76
2024/03/03 02:28:03;;;;;;;31.30;28.20;;;7.60;99.90;;;;;;5159372;27;20475;-76
2024/03/03 02:30:32;;;;;;;32.10;28.90;;;7.60;99.90;;;;;;5159333;27;20494;-75
2024/03/03 02:33:00;;;;;;;33.47;29.97;;;7.60;99.90;;;;;;5177955;27;20608;-75
2024/03/03 02:35:29;;;;;;;32.60;29.50;;;7.60;99.90;;;;;;5178001;27;20461;-76
2024/03/03 02:37:57;;;;;;;32.17;29.00;;;7.60;99.90;;;;;;5159472;27;20456;-75
2024/03/03 02:40:27;;;;;;;32.87;29.40;;;7.60;99.90;;;;;;5177925;27;20485;-75
2024/03/03 02:42:55;;;;;;;31.17;28.07;;;7.70;99.90;;;;;;5159356;27;20448;-75
2024/03/03 02:45:24;;;;;;;32.63;29.40;;;7.70;99.90;;;;;;5158857;27;20451;-77
2024/03/03 02:47:55;;;;;;;32.47;29.27;;;7.70;99.90;;;;;;5177906;27;20456;-74
2024/03/03 02:50:24;;;;;;;33.00;29.60;;;7.70;99.90;;;;;;5178013;27;20901;-76
2024/03/03 02:52:52;;;;;;;31.77;28.77;;;7.70;99.90;;;;;;5159112;27;20933;-76
2024/03/03 02:55:21;;;;;;;33.40;29.93;;;7.70;99.90;;;;;;5177693;27;20976;-76
2024/03/03 02:57:51;;;;;;;33.40;30.00;;;7.70;99.90;;;;;;5158787;27;20490;-76
2024/03/03 03:00:19;;;;;;;32.07;29.03;;;7.70;99.90;;;;;;5158942;27;20482;-76
2024/03/03 03:02:48;;;;;;;31.87;28.67;;;7.60;99.90;;;;;;5158901;27;20455;-75
2024/03/03 03:05:16;;;;;;;31.37;28.23;;;7.60;99.90;;;;;;5158700;27;21017;-76
2024/03/03 03:07:44;;;;;;;30.93;27.80;;;7.60;99.90;;;;;;5158601;27;20462;-76
2024/03/03 03:10:14;;;;;;;31.40;28.30;;;7.60;99.90;;;;;;5158689;27;20477;-75
2024/03/03 03:12:42;;;;;;;31.80;28.70;;;7.60;99.90;;;;;;5158524;27;20531;-76
2024/03/03 03:15:13;;;;;;;31.27;28.03;;;7.60;99.90;;;;;;5177101;27;20471;-76
2024/03/03 03:17:41;;;;;;;33.47;30.07;;;7.60;99.90;;;;;;5158275;27;20452;-76
2024/03/03 03:20:10;;;;;;;34.93;31.40;;;7.60;99.90;;;;;;5158485;27;20496;-76
2024/03/03 03:22:39;;;;;;;34.47;30.80;;;7.60;99.90;;;;;;5177018;27;20432;-76
2024/03/03 03:25:08;;;;;;;33.80;30.47;;;7.50;99.90;;;;;;5158271;27;20432;-75
2024/03/03 03:27:36;;;;;;;34.60;30.97;;;7.50;99.90;;;;;;5176883;27;20467;-75
2024/03/03 03:30:06;;;;;;;32.83;29.67;;;7.50;99.90;;;;;;5158260;27;20479;-75
2024/03/03 03:32:36;;;;;;;32.30;29.00;;;7.50;99.90;;;;;;5158130;27;20452;-76
2024/03/03 03:35:06;;;;;;;32.57;29.53;;;7.50;99.90;;;;;;5158013;27;20444;-76
2024/03/03 03:37:34;;;;;;;32.77;29.47;;;7.50;99.90;;;;;;5176978;27;20445;-76
2024/03/03 03:40:04;;;;;;;32.93;29.60;;;7.50;99.90;;;;;;5177082;27;20987;-76
2024/03/03 03:42:32;;;;;;;32.20;28.90;;;7.50;99.90;;;;;;5158828;27;20436;-76
2024/03/03 03:45:01;;;;;;;32.40;29.23;;;7.50;99.90;;;;;;5158021;27;20439;-76
2024/03/03 03:47:29;;;;;;;32.70;29.23;;;7.50;99.90;;;;;;5176955;27;20440;-76
2024/03/03 03:49:59;;;;;;;34.70;31.20;;;7.50;99.90;;;;;;5176836;27;20917;-76
2024/03/03 03:52:27;;;;;;;32.20;28.80;;;7.50;99.90;;;;;;5157852;27;20444;-76
2024/03/03 03:54:56;;;;;;;32.10;28.90;;;7.50;99.90;;;;;;5157341;27;20880;-76
2024/03/03 03:57:25;;;;;;;32.73;29.40;;;7.40;99.90;;;;;;5157189;27;20461;-75
2024/03/03 03:59:53;;;;;;;33.03;29.93;;;7.40;99.90;;;;;;5157662;27;20452;-76
2024/03/03 04:02:21;;;;;;;33.00;29.73;;;7.40;99.90;;;;;;5176727;27;20519;-76
2024/03/03 04:04:50;;;;;;;36.37;31.60;;;7.40;99.90;;;;;;5157524;27;20462;-76
2024/03/03 04:07:20;;;;;;;35.80;32.20;;;7.40;99.90;;;;;;5157449;27;20445;-76
2024/03/03 04:09:49;;;;;;;34.60;31.00;;;7.40;99.90;;;;;;5157638;27;20432;-76
2024/03/03 04:12:17;;;;;;;34.87;31.40;;;7.40;99.90;;;;;;5157367;27;20492;-76
2024/03/03 04:14:45;;;;;;;33.67;29.90;;;7.40;99.90;;;;;;5157579;27;20459;-76
2024/03/03 04:17:13;;;;;;;35.27;31.50;;;7.40;99.90;;;;;;5157218;27;20512;-76
2024/03/03 04:19:42;;;;;;;34.30;30.80;;;7.40;99.90;;;;;;5176394;27;20481;-76
2024/03/03 04:22:11;;;;;;;36.50;32.70;;;7.40;99.90;;;;;;5176341;27;20840;-76
2024/03/03 04:24:41;;;;;;;35.67;32.03;;;7.40;99.90;;;;;;5176112;27;20481;-76
2024/03/03 04:27:09;;;;;;;33.60;29.70;;;7.40;99.90;;;;;;5157154;27;20527;-76
2024/03/03 04:29:38;;;;;;;33.13;29.63;;;7.30;99.90;;;;;;5157391;27;20437;-76
2024/03/03 04:32:07;;;;;;;35.43;31.23;;;7.30;99.90;;;;;;5157122;27;20444;-76
2024/03/03 04:34:39;;;;;;;34.30;29.60;;;7.30;99.90;;;;;;5157272;27;20448;-76
2024/03/03 04:37:08;;;;;;;34.50;30.80;;;7.30;99.90;;;;;;5156904;27;20453;-76
2024/03/03 04:39:37;;;;;;;35.07;31.47;;;7.30;99.90;;;;;;5156994;27;20440;-76
2024/03/03 04:42:08;;;;;;;36.67;32.77;;;7.30;99.90;;;;;;5176204;27;20437;-76
2024/03/03 04:44:36;;;;;;;34.63;31.07;;;7.30;99.90;;;;;;5157016;27;20459;-76
2024/03/03 04:47:09;;;;;;;34.27;30.60;;;7.20;99.90;;;;;;5175702;27;20425;-75
2024/03/03 04:49:39;;;;;;;34.80;31.17;;;7.20;99.90;;;;;;5176000;27;20420;-76
2024/03/03 04:52:08;;;;;;;34.43;30.70;;;7.20;99.90;;;;;;5157018;27;20440;-76
2024/03/03 04:54:37;;;;;;;35.80;31.70;;;7.20;99.90;;;;;;5156950;27;20450;-76
2024/03/03 04:57:08;;;;;;;34.90;31.23;;;7.20;99.90;;;;;;5156844;27;20532;-76
2024/03/03 04:59:36;;;;;;;36.53;32.03;;;7.20;99.90;;;;;;5157226;27;20451;-76
2024/03/03 05:02:05;;;;;;;37.53;33.10;;;7.20;99.90;;;;;;5157044;27;20467;-76
2024/03/03 05:04:33;;;;;;;35.77;32.17;;;7.20;99.90;;;;;;5175566;27;20429;-76
2024/03/03 05:07:01;;;;;;;35.77;31.87;;;7.10;99.90;;;;;;5176826;27;20435;-76
2024/03/03 05:09:31;;;;;;;37.70;33.60;;;7.10;99.90;;;;;;5161193;27;20476;-75
2024/03/03 05:12:00;;;;;;;37.60;33.73;;;7.10;99.90;;;;;;5180032;27;20436;-76
2024/03/03 05:14:30;;;;;;;39.03;33.20;;;7.10;99.90;;;;;;5179690;27;20442;-75
2024/03/03 05:16:58;;;;;;;34.73;30.87;;;7.10;99.90;;;;;;5160779;27;20475;-76
2024/03/03 05:19:28;;;;;;;36.13;32.27;;;7.10;99.90;;;;;;5160877;27;20447;-76
2024/03/03 05:21:56;;;;;;;38.40;33.57;;;7.10;99.90;;;;;;5160768;27;20499;-76
2024/03/03 05:24:25;;;;;;;39.50;34.40;;;7.10;99.90;;;;;;5160687;27;20442;-76
2024/03/03 05:26:54;;;;;;;39.83;34.43;;;7.10;99.90;;;;;;5160675;27;20467;-76
2024/03/03 05:29:22;;;;;;;42.27;35.10;;;7.00;99.90;;;;;;5179644;27;20451;-75
2024/03/03 05:31:52;;;;;;;40.43;32.97;;;7.00;99.90;;;;;;5160855;27;20452;-75
2024/03/03 05:34:21;;;;;;;40.47;35.10;;;7.00;99.90;;;;;;5160600;27;20792;-76
2024/03/03 05:36:50;;;;;;;40.73;33.83;;;7.00;99.90;;;;;;5179278;27;20478;-76
2024/03/03 05:39:19;;;;;;;39.03;33.40;;;7.00;99.90;;;;;;5161445;27;20471;-75
2024/03/03 05:41:47;;;;;;;37.10;33.20;;;7.00;99.90;;;;;;5160445;27;20447;-76
2024/03/03 05:44:16;;;;;;;40.37;34.73;;;6.90;99.90;;;;;;5179084;27;20683;-76
2024/03/03 05:46:44;;;;;;;42.30;34.67;;;6.90;99.90;;;;;;5179152;27;20433;-76
2024/03/03 05:49:15;;;;;;;39.73;34.03;;;6.90;99.90;;;;;;5160186;27;20512;-76
2024/03/03 05:51:44;;;;;;;43.00;35.30;;;6.90;99.90;;;;;;5160397;27;20443;-76
2024/03/03 05:54:12;;;;;;;41.40;33.90;;;6.90;99.90;;;;;;5179220;27;20798;-76
2024/03/03 05:56:41;;;;;;;38.27;34.00;;;6.90;99.90;;;;;;5178751;27;20462;-76
2024/03/03 05:59:09;;;;;;;39.87;34.70;;;6.80;99.90;;;;;;5160099;27;20468;-76
2024/03/03 06:01:38;;;;;;;39.30;34.40;;;6.80;99.90;;;;;;5160179;27;20447;-76
2024/03/03 06:04:08;;;;;;;42.47;35.77;;;6.80;99.90;;;;;;5159869;27;20442;-76
2024/03/03 06:06:37;;;;;;;38.60;34.53;;;6.80;99.90;;;;;;5160040;27;20535;-76
2024/03/03 06:09:08;;;;;;;39.90;32.80;;;6.70;99.90;;;;;;5159524;27;20458;-76
2024/03/03 06:11:37;;;;;;;41.00;34.83;;;6.70;99.90;;;;;;5159735;27;20444;-76
2024/03/03 06:14:08;;;;;;;39.90;33.63;;;6.70;99.90;;;;;;5159788;27;20442;-76
2024/03/03 06:16:36;;;;;;;41.90;37.20;;;6.70;99.90;;;;;;5159500;27;20896;-76
2024/03/03 06:19:06;;;;;;;43.00;38.27;;;6.70;99.90;;;;;;5158575;27;20455;-76
2024/03/03 06:21:35;;;;;;;41.20;33.70;;;6.70;99.90;;;;;;5159617;27;20470;-76
2024/03/03 06:24:05;;;;;;;42.57;35.37;;;6.70;99.90;;;;;;5159559;27;20444;-76
2024/03/03 06:26:35;;;;;;;44.00;35.97;;;6.70;99.90;;;;;;5159462;27;20435;-76
2024/03/03 06:29:04;;;;;;;42.73;37.90;;;6.60;99.90;;;;;;5159501;27;20522;-76
2024/03/03 06:31:34;;;;;;;41.73;36.93;;;6.60;99.90;;;;;;5159530;27;20436;-76
2024/03/03 06:34:03;;;;;;;45.33;37.20;;;6.60;99.90;;;;;;5159645;27;20473;-76
2024/03/03 06:36:31;;;;;;;43.10;37.03;;;6.70;99.90;;;;;;5159330;27;20480;-75
2024/03/03 06:39:00;;;;;;;45.30;37.67;;;6.70;99.90;;;;;;5159081;27;20479;-76
2024/03/03 06:41:30;;;;;;;43.43;36.77;;;6.70;99.90;;;;;;5177929;27;20431;-76
2024/03/03 06:43:58;;;;;;;42.80;36.60;;;6.60;99.90;;;;;;5159466;27;20551;-76
2024/03/03 06:46:28;;;;;;;43.63;37.10;;;6.70;99.90;;;;;;5177759;27;20454;-76
2024/03/03 06:48:56;;;;;;;43.50;37.07;;;6.70;99.90;;;;;;5158941;27;20461;-76
2024/03/03 06:51:25;;;;;;;42.90;37.60;;;6.70;99.90;;;;;;5159313;27;20452;-76
2024/03/03 06:53:53;;;;;;;46.33;38.43;;;6.70;99.90;;;;;;5159157;27;20444;-76
2024/03/03 06:56:22;;;;;;;44.90;38.03;;;6.70;99.90;;;;;;5159121;27;20444;-76
2024/03/03 06:58:52;;;;;;;43.43;38.07;;;6.80;99.90;;;;;;5158810;27;20849;-76
2024/03/03 07:01:20;;;;;;;44.57;36.93;;;6.80;99.90;;;;;;5158842;27;20454;-76
2024/03/03 07:06:36;;;;;;;43.37;37.00;;;6.80;99.90;;;;;;5177535;27;20416;-76
2024/03/03 07:09:05;;;;;;;43.17;38.57;;;6.80;99.90;;;;;;5158759;27;20464;-76
2024/03/03 07:11:33;;;;;;;42.57;37.93;;;6.90;99.90;;;;;;5177354;27;20433;-76
2024/03/03 07:14:03;;;;;;;45.67;38.63;;;6.90;99.90;;;;;;5158773;27;20437;-76
2024/03/03 07:16:32;;;;;;;44.33;37.97;;;6.90;99.90;;;;;;5177258;27;20431;-76
2024/03/03 07:19:00;;;;;;;43.40;38.80;;;6.90;99.90;;;;;;5158424;27;20466;-76
2024/03/03 07:21:29;;;;;;;47.20;42.00;;;7.00;99.90;;;;;;5177375;27;20823;-76
2024/03/03 07:23:58;;;;;;;41.10;36.57;;;7.00;99.90;;;;;;5177537;27;20804;-76
2024/03/03 07:26:26;;;;;;;44.53;39.30;;;7.00;99.90;;;;;;5158583;27;20447;-76
2024/03/03 07:28:55;;;;;;;46.67;41.43;;;7.10;99.90;;;;;;5158273;27;20479;-77
2024/03/03 07:31:25;;;;;;;46.03;41.00;;;7.10;99.90;;;;;;5158386;27;20500;-76
2024/03/03 07:33:54;;;;;;;42.07;37.70;;;7.20;99.90;;;;;;5158293;27;20495;-76
2024/03/03 07:36:22;;;;;;;43.10;38.70;;;7.20;99.90;;;;;;5158276;27;20439;-76
2024/03/03 07:38:51;;;;;;;43.00;38.40;;;7.30;99.90;;;;;;5156930;27;20525;-76
2024/03/03 07:41:19;;;;;;;41.67;36.70;;;7.40;99.90;;;;;;5158275;27;20238;-76
2024/03/03 07:43:47;;;;;;;44.03;39.33;;;7.50;99.90;;;;;;5176766;27;20428;-76
2024/03/03 07:46:17;;;;;;;42.90;38.60;;;7.50;99.90;;;;;;5158438;27;20447;-77
2024/03/03 07:48:47;;;;;;;42.13;37.67;;;7.50;99.90;;;;;;5158014;27;20468;-76
2024/03/03 07:51:18;;;;;;;39.97;35.90;;;7.50;99.90;;;;;;5158198;27;20445;-76
2024/03/03 07:53:47;;;;;;;41.87;37.47;;;7.60;99.90;;;;;;5176976;27;20890;-75
2024/03/03 07:56:16;;;;;;;42.43;38.07;;;7.60;99.90;;;;;;5157913;27;20949;-76
2024/03/03 07:58:45;;;;;;;38.30;34.40;;;7.70;99.90;;;;;;5157735;27;20472;-76
2024/03/03 08:01:13;;;;;;;39.17;35.07;;;7.80;99.90;;;;;;5176469;27;20456;-76
2024/03/03 08:03:42;;;;;;;38.77;34.67;;;7.80;99.90;;;;;;5157653;27;20445;-75
2024/03/03 08:06:12;;;;;;;37.37;33.67;;;7.90;99.90;;;;;;5157739;27;20469;-76
2024/03/03 08:08:41;;;;;;;37.27;33.53;;;7.90;99.90;;;;;;5157735;27;20515;-76
2024/03/03 08:11:09;;;;;;;37.33;33.70;;;8.00;99.90;;;;;;5157497;27;21002;-76
2024/03/03 08:13:38;;;;;;;35.70;32.00;;;8.00;99.90;;;;;;5157488;27;20449;-76
2024/03/03 08:16:07;;;;;;;36.57;32.87;;;8.10;99.90;;;;;;5157636;27;20487;-75
2024/03/03 08:18:35;;;;;;;40.70;36.60;;;8.20;99.90;;;;;;5157354;27;20563;-76
2024/03/03 08:21:04;;;;;;;35.60;32.07;;;8.30;99.90;;;;;;5157500;27;20465;-76
2024/03/03 08:23:33;;;;;;;38.13;34.27;;;8.40;99.90;;;;;;5157494;27;20489;-76
2024/03/03 08:26:02;;;;;;;35.47;31.67;;;8.50;99.90;;;;;;5177648;27;20861;-75
2024/03/03 08:28:30;;;;;;;35.03;31.73;;;8.60;99.90;;;;;;5157371;27;20483;-77
2024/03/03 08:30:59;;;;;;;34.20;30.80;;;8.70;99.90;;;;;;5157793;27;20468;-75
2024/03/03 08:33:27;;;;;;;35.40;31.80;;;8.80;99.90;;;;;;5157508;27;20437;-75
2024/03/03 08:35:56;;;;;;;34.13;30.57;;;8.90;99.90;;;;;;5176404;27;20428;-77
2024/03/03 08:38:24;;;;;;;34.60;31.10;;;9.00;99.90;;;;;;5157835;27;20985;-77
2024/03/03 08:40:54;;;;;;;33.23;29.80;;;9.10;99.90;;;;;;5157233;27;20563;-76
2024/03/03 08:43:22;;;;;;;32.40;29.30;;;9.20;99.90;;;;;;5156852;27;20463;-76
2024/03/03 08:45:51;;;;;;;34.10;30.40;;;9.30;99.90;;;;;;5157268;27;20472;-76
2024/03/03 08:48:20;;;;;;;31.90;28.80;;;9.40;99.90;;;;;;5156994;27;20492;-76
2024/03/03 08:50:50;;;;;;;31.33;28.23;;;9.50;99.90;;;;;;5157182;27;20453;-77
2024/03/03 08:53:23;;;;;;;31.87;28.67;;;9.60;99.90;;;;;;5175953;27;20425;-77
2024/03/03 08:55:52;;;;;;;29.83;26.93;;;9.70;99.90;;;;;;5175845;27;20437;-76
2024/03/03 08:58:21;;;;;;;31.30;28.27;;;9.70;99.90;;;;;;5176115;27;20517;-76
2024/03/03 09:00:51;;;;;;;31.40;28.10;;;9.80;99.90;;;;;;5156987;27;20894;-76
2024/03/03 09:03:19;;;;;;;32.10;29.00;;;9.90;99.90;;;;;;5157023;27;20447;-76
2024/03/03 09:05:48;;;;;;;30.87;27.70;;;9.90;99.90;;;;;;5157332;27;20467;-77
2024/03/03 09:08:16;;;;;;;37.83;34.03;;;10.00;99.90;;;;;;5157089;27;21004;-77
2024/03/03 09:10:44;;;;;;;32.43;29.07;;;10.00;99.90;;;;;;5157053;27;20479;-76
2024/03/03 09:13:14;;;;;;;32.70;29.17;;;10.00;99.90;;;;;;5175564;27;20428;-76
2024/03/03 09:15:42;;;;;;;31.40;28.17;;;10.10;99.90;;;;;;5157074;27;20898;-76
2024/03/03 09:18:11;;;;;;;32.73;29.43;;;10.10;99.90;;;;;;5175668;27;20444;-75
2024/03/03 09:20:42;;;;;;;32.10;28.90;;;10.20;99.90;;;;;;5175878;27;20942;-75
2024/03/03 09:23:10;;;;;;;31.53;28.47;;;10.20;99.90;;;;;;5156938;27;20436;-75
2024/03/03 09:25:38;;;;;;;30.73;27.70;;;10.30;99.90;;;;;;5156959;27;20946;-76
2024/03/03 09:28:10;;;;;;;34.27;30.83;;;10.30;99.90;;;;;;5156709;27;20985;-75
2024/03/03 09:30:40;;;;;;;30.80;27.80;;;10.30;99.90;;;;;;5156827;27;20441;-76
2024/03/03 09:33:08;;;;;;;33.33;30.00;;;10.40;99.90;;;;;;5156739;27;20550;-76
2024/03/03 09:35:39;;;;;;;31.50;28.53;;;10.40;99.90;;;;;;5156721;27;20960;-76
2024/03/03 09:38:08;;;;;;;33.57;30.27;;;10.50;99.90;;;;;;5156732;27;20460;-76
2024/03/03 09:40:37;;;;;;;32.17;28.93;;;10.50;99.90;;;;;;5175427;27;20460;-76
2024/03/03 09:43:06;;;;;;;32.90;29.70;;;10.50;99.90;;;;;;5156619;27;20945;-75
2024/03/03 09:45:36;;;;;;;32.10;29.00;;;10.60;99.90;;;;;;5156774;27;20437;-76
2024/03/03 09:48:09;;;;;;;33.23;30.03;;;10.60;99.90;;;;;;5156587;27;20457;-76
2024/03/03 09:50:38;;;;;;;34.00;30.33;;;10.60;99.90;;;;;;5156653;27;20509;-76
2024/03/03 09:53:09;;;;;;;34.13;30.80;;;10.70;99.90;;;;;;5156686;27;20447;-76
2024/03/03 09:55:38;;;;;;;32.50;29.50;;;10.70;99.90;;;;;;5179280;27;20417;-76
2024/03/03 09:58:09;;;;;;;32.90;29.60;;;10.70;99.90;;;;;;5160309;27;20460;-76
2024/03/03 10:00:37;;;;;;;33.60;30.20;;;10.80;99.90;;;;;;5160261;27;20545;-76
2024/03/03 10:03:08;;;;;;;35.13;31.53;;;10.80;99.90;;;;;;5160198;27;20496;-76
2024/03/03 10:05:39;;;;;;;34.67;31.17;;;10.90;99.90;;;;;;5160097;27;20532;-76
2024/03/03 10:08:11;;;;;;;33.00;29.70;;;10.90;99.90;;;;;;5178662;27;20448;-76
2024/03/03 10:10:43;;;;;;;33.80;30.60;;;11.00;99.90;;;;;;5160019;27;20433;-76
2024/03/03 10:13:17;;;;;;;35.33;31.93;;;11.00;99.90;;;;;;5160003;27;20424;-76
2024/03/03 10:15:47;;;;;;;34.47;31.17;;;11.10;99.90;;;;;;5160336;27;20448;-76
2024/03/03 10:18:19;;;;;;;32.63;29.40;;;11.20;99.90;;;;;;5160609;27;20468;-76
2024/03/03 10:20:49;;;;;;;34.43;31.03;;;11.20;99.90;;;;;;5178464;27;20476;-76
2024/03/03 10:23:22;;;;;;;32.27;29.27;;;11.20;99.90;;;;;;5178485;27;20425;-76
2024/03/03 10:25:55;;;;;;;34.80;31.30;;;11.20;99.90;;;;;;5159758;27;20448;-76
2024/03/03 10:28:23;;;;;;;36.73;32.73;;;11.30;99.90;;;;;;5159684;27;20976;-76
2024/03/03 10:31:11;;;;;;;31.50;28.50;;;11.40;99.90;;;;;;5159769;27;20493;-77
2024/03/03 10:33:53;;;;;;;32.93;29.90;;;11.40;99.90;;;;;;5178368;27;20774;-76
2024/03/03 10:36:22;;;;;;;33.70;29.83;;;11.50;99.90;;;;;;5178366;27;20849;-76
2024/03/03 10:38:52;;;;;;;33.47;30.27;;;11.50;99.90;;;;;;5178203;27;20448;-75
2024/03/03 10:41:20;;;;;;;34.90;31.43;;;11.60;99.90;;;;;;5178000;27;20467;-75
2024/03/03 10:43:50;;;;;;;35.27;31.70;;;11.60;99.90;;;;;;5178256;27;20988;-75
2024/03/03 10:46:20;;;;;;;35.03;31.63;;;11.70;99.90;;;;;;5159178;27;20437;-75
2024/03/03 10:48:52;;;;;;;37.27;33.50;;;11.80;99.90;;;;;;5159316;27;20884;-75
2024/03/03 10:51:22;;;;;;;37.00;33.40;;;11.80;99.90;;;;;;5178130;27;20831;-76
2024/03/03 10:53:52;;;;;;;34.10;30.90;;;11.90;99.90;;;;;;5159330;27;20527;-76
2024/03/03 10:56:22;;;;;;;36.63;32.90;;;11.90;99.90;;;;;;5178118;27;20516;-76
2024/03/03 10:58:51;;;;;;;37.20;33.50;;;12.00;99.90;;;;;;5159481;27;20469;-76
2024/03/03 11:01:20;;;;;;;37.63;33.93;;;12.00;99.90;;;;;;5160021;27;20555;-76
2024/03/03 11:03:52;;;;;;;36.60;33.20;;;12.10;99.90;;;;;;5159391;27;20475;-77
2024/03/03 11:06:24;;;;;;;35.67;32.17;;;12.10;99.90;;;;;;5158634;27;20445;-77
2024/03/03 11:08:54;;;;;;;36.30;32.70;;;12.20;99.90;;;;;;5159231;27;20467;-77
2024/03/03 11:11:25;;;;;;;35.23;31.80;;;12.30;99.90;;;;;;5159318;27;20984;-76
2024/03/03 11:14:00;;;;;;;35.30;31.83;;;12.30;99.90;;;;;;5158929;27;20433;-77
2024/03/03 11:16:29;;;;;;;35.23;31.90;;;12.40;99.90;;;;;;5158974;27;20468;-77
2024/03/03 11:19:03;;;;;;;33.33;30.07;;;12.50;99.90;;;;;;5158951;27;20507;-77
2024/03/03 11:21:37;;;;;;;35.47;31.97;;;12.50;99.90;;;;;;5158975;27;20965;-77
2024/03/03 11:24:06;;;;;;;36.00;32.20;;;12.60;99.90;;;;;;5178079;27;20461;-77
2024/03/03 11:26:43;;;;;;;35.97;32.37;;;12.60;99.90;;;;;;5158498;27;20448;-75
2024/03/03 11:29:13;;;;;;;35.53;31.90;;;12.60;99.90;;;;;;5158359;27;20829;-77
2024/03/03 11:31:42;;;;;;;36.37;32.90;;;12.70;99.90;;;;;;5158600;27;20474;-75
2024/03/03 11:34:13;;;;;;;35.33;31.83;;;12.80;99.90;;;;;;5158586;27;20444;-77
2024/03/03 11:36:44;;;;;;;33.00;29.77;;;12.80;99.90;;;;;;5158985;27;20481;-76
2024/03/03 11:39:16;;;;;;;36.43;33.00;;;12.80;99.90;;;;;;5158970;27;20472;-76
2024/03/03 11:41:45;;;;;;;34.00;30.80;;;12.90;99.90;;;;;;5158305;27;20984;-74
2024/03/03 11:44:47;;;;;;;36.53;33.10;;;12.90;99.90;;;;;;5177016;27;20477;-78
2024/03/03 11:47:16;;;;;;;34.33;31.00;;;13.00;99.90;;;;;;5158567;27;20437;-77
2024/03/03 11:49:46;;;;;;;36.03;32.53;;;13.00;99.90;;;;;;5158525;27;20455;-77
2024/03/03 11:52:38;;;;;;;32.53;29.50;;;13.00;99.90;;;;;;5177158;27;20433;-78
2024/03/03 11:55:08;;;;;;;34.07;30.93;;;13.10;99.90;;;;;;5158483;27;20957;-78
2024/03/03 11:57:40;;;;;;;36.67;33.22;;;13.10;99.90;;;;;;5158194;27;20442;-77
2024/03/03 12:00:14;;;;;;;33.03;28.17;;;13.20;99.90;;;;;;5158232;27;20213;-77
2024/03/03 12:02:43;;;;;;;34.47;31.13;;;13.20;99.90;;;;;;5157951;27;20436;-77
2024/03/03 12:05:14;;;;;;;34.73;31.20;;;13.20;99.90;;;;;;5176550;27;20428;-77
2024/03/03 12:07:45;;;;;;;34.13;30.80;;;13.30;99.90;;;;;;5176686;27;20575;-77
2024/03/03 12:10:15;;;;;;;35.07;31.53;;;13.30;99.90;;;;;;5157797;27;20491;-76
2024/03/03 12:12:48;;;;;;;35.53;32.13;;;13.30;99.90;;;;;;5158132;27;20475;-77
2024/03/03 12:15:18;;;;;;;38.67;34.47;;;13.30;99.90;;;;;;5158542;27;20440;-77
2024/03/03 12:17:50;;;;;;;34.23;30.60;;;13.30;99.90;;;;;;5156777;27;20505;-77
2024/03/03 12:20:22;;;;;;;35.70;32.20;;;13.40;99.90;;;;;;5157497;27;20515;-76
2024/03/03 12:22:51;;;;;;;36.80;33.10;;;13.40;99.90;;;;;;5176697;27;20465;-77
2024/03/03 12:25:21;;;;;;;34.00;30.60;;;13.40;99.90;;;;;;5158759;27;20450;-79
2024/03/03 12:27:52;;;;;;;35.53;31.90;;;13.40;99.90;;;;;;5177536;27;20827;-78
2024/03/03 12:30:23;;;;;;;33.70;30.40;;;13.50;99.90;;;;;;5158703;27;20477;-78
2024/03/03 12:32:52;;;;;;;35.53;32.03;;;13.50;99.90;;;;;;5159889;27;20437;-79
2024/03/03 12:35:27;;;;;;;35.70;32.07;;;13.60;99.90;;;;;;5159274;27;20436;-79
2024/03/03 12:37:56;;;;;;;35.80;32.33;;;13.60;99.90;;;;;;5158810;27;20461;-81
2024/03/03 12:40:26;;;;;;;34.50;31.00;;;13.70;99.90;;;;;;5158217;27;20551;-78
2024/03/03 12:42:55;;;;;;;35.97;32.47;;;13.70;99.90;;;;;;5158349;27;20440;-78
2024/03/03 12:45:24;;;;;;;35.80;32.20;;;13.80;99.90;;;;;;5158081;27;20972;-79
2024/03/03 12:47:53;;;;;;;35.93;32.43;;;13.80;99.90;;;;;;5158615;27;20471;-79